Brevik Bridge — VRHY7 — position and weather

sailwx.info

Track history (hours):
 
Tides and Currents Weather Stations Pressure Air Temp Water Temp Dewpoint Dewpoint Depression Visibility Wind Speed Wind Dir Waves Ship Positions

Brevik Bridge

Last reported at 2014-Nov-16 19:21 UTC. Time now 2014-Nov-29 07:31 UTC.
Position N 01°12' E 103°39'.
Warning: this ship's position is 12 days out of date.

Length 268 m; draft 12.5 m.

Type: Cargo ship. MMSI: 477866200.

Date/timePositionNaut miles runAvg speedWind from/ knotsBaromVisibWave heightAir tempDewpointWater temp
2014-Nov-16 19:21N 01°12' E 103°39'8 9.8
2014-Nov-16 18:33N 01°17' E 103°45'1 0.6
2014-Nov-16 17:19N 01°17' E 103°46'0 0.0
2014-Nov-16 16:31N 01°17' E 103°46'0 0.0
2014-Nov-16 15:34N 01°17' E 103°46'0 0.0
2014-Nov-16 14:25N 01°17' E 103°46'0 0.0
2014-Nov-16 13:31N 01°17' E 103°46'0 0.0
2014-Nov-16 12:25N 01°17' E 103°46'0 0.0
2014-Nov-16 11:28N 01°17' E 103°46'0 0.0
2014-Nov-16 10:31N 01°17' E 103°46'0 0.0
2014-Nov-16 09:31N 01°17' E 103°46'0 0.0
2014-Nov-16 08:34N 01°17' E 103°46'0 0.0
2014-Nov-16 07:19N 01°17' E 103°46'0 0.0
2014-Nov-16 06:31N 01°17' E 103°46'0 0.0
2014-Nov-16 05:25N 01°17' E 103°46'0 0.1
2014-Nov-16 04:31N 01°17' E 103°46'0 0.0
2014-Nov-16 03:31N 01°17' E 103°46'0 0.1
2014-Nov-16 02:34N 01°17' E 103°46'0 0.0
2014-Nov-16 01:31N 01°17' E 103°46'0 0.0
2014-Nov-16 00:31N 01°17' E 103°46'0 0.3
2014-Nov-15 23:34N 01°17' E 103°46'3 3.5
2014-Nov-15 22:33N 01°14' E 103°47'9 8.8
2014-Nov-15 21:33N 01°14' E 103°56'8 8.0
2014-Nov-15 20:33N 01°16' E 104°04'1211.9
2014-Nov-15 19:33N 01°18' E 104°15'  
2014-Nov-12 05:33N 22°08' E 114°13'1210.2
2014-Nov-12 04:25N 22°18' E 114°06'1110.9
2014-Nov-12 03:27N 22°22' E 113°55'5 5.4
2014-Nov-12 02:33N 22°26' E 113°53'1 1.1
2014-Nov-12 01:31N 22°27' E 113°54'0 0.0
2014-Nov-12 00:30N 22°27' E 113°54'0 0.0
2014-Nov-11 23:30N 22°27' E 113°54'0 0.0
2014-Nov-11 22:30N 22°27' E 113°54'0 0.0
2014-Nov-11 21:18N 22°27' E 113°54'0 0.0
2014-Nov-11 20:30N 22°27' E 113°54'0 0.0
2014-Nov-11 19:31N 22°27' E 113°54'0 0.1
2014-Nov-11 18:24N 22°27' E 113°54'0 0.0
2014-Nov-11 17:18N 22°27' E 113°54'0 0.1
2014-Nov-11 16:24N 22°27' E 113°54'0 0.0
2014-Nov-11 15:25N 22°27' E 113°54'0 0.1
2014-Nov-11 14:31N 22°27' E 113°54'1 1.4
2014-Nov-11 13:33N 22°26' E 113°53'10 9.1
2014-Nov-11 12:28N 22°21' E 114°02'3 2.7
2014-Nov-11 11:29N 22°19' E 114°04'0 0.0
2014-Nov-11 08:05N 22°19' E 114°04'0 0.0
2014-Nov-11 07:11N 22°19' E 114°04'0 0.1
2014-Nov-11 06:11N 22°19' E 114°04'0 0.1
2014-Nov-11 05:29N 22°19' E 114°04'0 0.0
2014-Nov-11 04:17N 22°19' E 114°04'0 0.0
2014-Nov-11 03:23N 22°19' E 114°04'0 0.0
2014-Nov-11 01:23N 22°19' E 114°04'0 0.0
2014-Nov-11 00:23N 22°19' E 114°04'0 0.1
2014-Nov-10 23:23N 22°19' E 114°04'3 1.0
2014-Nov-10 20:33N 22°20' E 114°07'0 0.2
2014-Nov-10 19:28N 22°20' E 114°08'0 0.0
2014-Nov-10 18:16N 22°20' E 114°08'0 0.0
2014-Nov-10 17:16N 22°20' E 114°08'0 0.0
2014-Nov-10 16:28N 22°20' E 114°08'0 0.0
2014-Nov-10 15:10N 22°20' E 114°08'0 0.0
2014-Nov-10 14:28N 22°20' E 114°08'0 0.0
2014-Nov-10 13:28N 22°20' E 114°08'0 0.0
2014-Nov-10 12:28N 22°20' E 114°08'0 0.0
2014-Nov-10 11:22N 22°20' E 114°08'0 0.0
2014-Nov-10 09:10N 22°20' E 114°08'0 0.0
2014-Nov-10 08:22N 22°20' E 114°08'0 0.0
2014-Nov-10 07:10N 22°20' E 114°08'0 0.0
2014-Nov-10 06:16N 22°20' E 114°08'0 0.0
2014-Nov-10 05:28N 22°20' E 114°08'0 0.0
2014-Nov-10 04:23N 22°20' E 114°08'13 6.1
2014-Nov-10 02:13N 22°08' E 114°14'240 4.6
2014-Nov-07 22:17N 23°52' E 118°09'1212.1
2014-Nov-07 21:17N 24°01' E 118°18'912.1
2014-Nov-07 20:33N 24°10' E 118°19'1111.2
2014-Nov-07 19:32N 24°19' E 118°11'1211.8
2014-Nov-07 18:33N 24°26' E 118°02'1 0.7
2014-Nov-07 17:31N 24°27' E 118°01'0 0.0
2014-Nov-07 16:18N 24°27' E 118°01'0 0.0
2014-Nov-07 15:18N 24°27' E 118°01'0 0.0
2014-Nov-07 14:30N 24°27' E 118°01'0 0.0
2014-Nov-07 09:18N 24°27' E 118°01'0 0.1
2014-Nov-07 08:30N 24°27' E 118°01'1 0.5
2014-Nov-07 07:33N 24°26' E 118°02'1111.0
2014-Nov-07 06:32N 24°19' E 118°11'1212.4
2014-Nov-07 05:32N 24°10' E 118°20'9 8.8
2014-Nov-07 04:29N 24°02' E 118°25'11 9.9
2014-Nov-07 03:23N 23°52' E 118°30'8812.1
2014-Nov-06 20:06N 22°56' E 119°43'712.3
2014-Nov-06 19:33N 22°52' E 119°50'  
Track history (hours):
 
Tides and Currents Weather Stations Pressure Air Temp Water Temp Dewpoint Dewpoint Depression Visibility Wind Speed Wind Dir Waves Ship Positions

Brevik Bridge

Last reported at 2014-Nov-16 19:21 UTC. Time now 2014-Nov-29 07:31 UTC.
Position N 01°12' E 103°39'.
Warning: this ship's position is 12 days out of date.

Length 268 m; draft 12.5 m.

Type: Cargo ship. MMSI: 477866200.

Date/timePositionNaut miles runAvg speedWind from/ knotsBaromVisibWave heightAir tempDewpointWater temp
2014-Nov-16 19:21N 01°12' E 103°39'8 9.8
2014-Nov-16 18:33N 01°17' E 103°45'1 0.6
2014-Nov-16 17:19N 01°17' E 103°46'0 0.0
2014-Nov-16 16:31N 01°17' E 103°46'0 0.0
2014-Nov-16 15:34N 01°17' E 103°46'0 0.0
2014-Nov-16 14:25N 01°17' E 103°46'0 0.0
2014-Nov-16 13:31N 01°17' E 103°46'0 0.0
2014-Nov-16 12:25N 01°17' E 103°46'0 0.0
2014-Nov-16 11:28N 01°17' E 103°46'0 0.0
2014-Nov-16 10:31N 01°17' E 103°46'0 0.0
2014-Nov-16 09:31N 01°17' E 103°46'0 0.0
2014-Nov-16 08:34N 01°17' E 103°46'0 0.0
2014-Nov-16 07:19N 01°17' E 103°46'0 0.0
2014-Nov-16 06:31N 01°17' E 103°46'0 0.0
2014-Nov-16 05:25N 01°17' E 103°46'0 0.1
2014-Nov-16 04:31N 01°17' E 103°46'0 0.0
2014-Nov-16 03:31N 01°17' E 103°46'0 0.1
2014-Nov-16 02:34N 01°17' E 103°46'0 0.0
2014-Nov-16 01:31N 01°17' E 103°46'0 0.0
2014-Nov-16 00:31N 01°17' E 103°46'0 0.3
2014-Nov-15 23:34N 01°17' E 103°46'3 3.5
2014-Nov-15 22:33N 01°14' E 103°47'9 8.8
2014-Nov-15 21:33N 01°14' E 103°56'8 8.0
2014-Nov-15 20:33N 01°16' E 104°04'1211.9
2014-Nov-15 19:33N 01°18' E 104°15'  
2014-Nov-12 05:33N 22°08' E 114°13'1210.2
2014-Nov-12 04:25N 22°18' E 114°06'1110.9
2014-Nov-12 03:27N 22°22' E 113°55'5 5.4
2014-Nov-12 02:33N 22°26' E 113°53'1 1.1
2014-Nov-12 01:31N 22°27' E 113°54'0 0.0
2014-Nov-12 00:30N 22°27' E 113°54'0 0.0
2014-Nov-11 23:30N 22°27' E 113°54'0 0.0
2014-Nov-11 22:30N 22°27' E 113°54'0 0.0
2014-Nov-11 21:18N 22°27' E 113°54'0 0.0
2014-Nov-11 20:30N 22°27' E 113°54'0 0.0
2014-Nov-11 19:31N 22°27' E 113°54'0 0.1
2014-Nov-11 18:24N 22°27' E 113°54'0 0.0
2014-Nov-11 17:18N 22°27' E 113°54'0 0.1
2014-Nov-11 16:24N 22°27' E 113°54'0 0.0
2014-Nov-11 15:25N 22°27' E 113°54'0 0.1
2014-Nov-11 14:31N 22°27' E 113°54'1 1.4
2014-Nov-11 13:33N 22°26' E 113°53'10 9.1
2014-Nov-11 12:28N 22°21' E 114°02'3 2.7
2014-Nov-11 11:29N 22°19' E 114°04'0 0.0
2014-Nov-11 08:05N 22°19' E 114°04'0 0.0
2014-Nov-11 07:11N 22°19' E 114°04'0 0.1
2014-Nov-11 06:11N 22°19' E 114°04'0 0.1
2014-Nov-11 05:29N 22°19' E 114°04'0 0.0
2014-Nov-11 04:17N 22°19' E 114°04'0 0.0
2014-Nov-11 03:23N 22°19' E 114°04'0 0.0
2014-Nov-11 01:23N 22°19' E 114°04'0 0.0
2014-Nov-11 00:23N 22°19' E 114°04'0 0.1
2014-Nov-10 23:23N 22°19' E 114°04'3 1.0
2014-Nov-10 20:33N 22°20' E 114°07'0 0.2
2014-Nov-10 19:28N 22°20' E 114°08'0 0.0
2014-Nov-10 18:16N 22°20' E 114°08'0 0.0
2014-Nov-10 17:16N 22°20' E 114°08'0 0.0
2014-Nov-10 16:28N 22°20' E 114°08'0 0.0
2014-Nov-10 15:10N 22°20' E 114°08'0 0.0
2014-Nov-10 14:28N 22°20' E 114°08'0 0.0
2014-Nov-10 13:28N 22°20' E 114°08'0 0.0
2014-Nov-10 12:28N 22°20' E 114°08'0 0.0
2014-Nov-10 11:22N 22°20' E 114°08'0 0.0
2014-Nov-10 09:10N 22°20' E 114°08'0 0.0
2014-Nov-10 08:22N 22°20' E 114°08'0 0.0
2014-Nov-10 07:10N 22°20' E 114°08'0 0.0
2014-Nov-10 06:16N 22°20' E 114°08'0 0.0
2014-Nov-10 05:28N 22°20' E 114°08'0 0.0
2014-Nov-10 04:23N 22°20' E 114°08'13 6.1
2014-Nov-10 02:13N 22°08' E 114°14'240 4.6
2014-Nov-07 22:17N 23°52' E 118°09'1212.1
2014-Nov-07 21:17N 24°01' E 118°18'912.1
2014-Nov-07 20:33N 24°10' E 118°19'1111.2
2014-Nov-07 19:32N 24°19' E 118°11'1211.8
2014-Nov-07 18:33N 24°26' E 118°02'1 0.7
2014-Nov-07 17:31N 24°27' E 118°01'0 0.0
2014-Nov-07 16:18N 24°27' E 118°01'0 0.0
2014-Nov-07 15:18N 24°27' E 118°01'0 0.0
2014-Nov-07 14:30N 24°27' E 118°01'0 0.0
2014-Nov-07 09:18N 24°27' E 118°01'0 0.1
2014-Nov-07 08:30N 24°27' E 118°01'1 0.5
2014-Nov-07 07:33N 24°26' E 118°02'1111.0
2014-Nov-07 06:32N 24°19' E 118°11'1212.4
2014-Nov-07 05:32N 24°10' E 118°20'9 8.8
2014-Nov-07 04:29N 24°02' E 118°25'11 9.9
2014-Nov-07 03:23N 23°52' E 118°30'8812.1
2014-Nov-06 20:06N 22°56' E 119°43'712.3
2014-Nov-06 19:33N 22°52' E 119°50'  

Dump ship's entire track history